Terminal Aerodrome Forecast
Issued by NWS Cleveland, OH

Home | Current Version | Previous Version | Graphics & Text | Print | Product List | Glossary On
Versions: 1 2 3 4 5 6 7 8 9 10 11 12 13 14 15 16 17 18 19 20 21 22 23 24 25 26 27 28 29 30 31 32 33 34 35 36
000
FTUS41 KCLE 252300
TAFCLE
TAF
KCLE 252325Z 2600/2706 03012KT 2SM -SN SCT012 OVC025
      TEMPO 2600/2602 1 1/2SM -SN OVC012
     FM260200 03012KT 2SM -SN OVC012
      TEMPO 2602/2606 1SM -SN OVC012
     FM261000 03012KT 4SM -SN OVC010
      TEMPO 2612/2616 OVC008
     FM261600 36012KT 6SM -SN OVC015
     FM262000 36012KT P6SM OVC025
     FM270200 36007KT P6SM OVC015=

USA.gov is the U.S. government's official web portal to all federal, state and local government web resources and services.